M I D A S
Marine Information and Data Acquisition System
Tripno 1338 of the Zeeleeuw from 2007-07-05 06:31:09 to 2007-07-05 15:53:31
Back to CruiseResearch ActivitiesStationsMapUnderway DataData graphs

EquipmentUnitsComment
TimeDGPSUTC
LatitudeDGPSDM.mWGS84
LongitudeDGPSDM.mWGS84
HeadingGyrodeg 
SOGDGPSknotsSpeed over ground
COGDGPSdegCourse over ground
DepthEcho soundermeters200 kHz
Missing or incorrect values are displayed as -999
Navigation data collected by the RV Zeeleeuw from 2007-07-05 06:31:52 to 2007-07-05 16:04:38
Time Latitude Longitude Heading SOG COG Depth
2007-07-05 06:32:57 51°13.615 2°56.033 119.7 3.9 296 -999
2007-07-05 06:33:57 51°13.655 2°55.934 128.1 4.6 306 -999
2007-07-05 06:34:57 51°13.692 2°55.835 113.1 3.9 294 -999
2007-07-05 06:35:58 51°13.704 2°55.756 93.7 0.5 281 13.6
2007-07-05 06:36:57 51°13.706 2°55.768 41.1 1.6 212 13.7
2007-07-05 06:37:57 51°13.704 2°55.764 24.2 2.7 13 4.8
2007-07-05 06:38:57 51°13.773 2°55.702 322.1 6.7 320 11.7
2007-07-05 06:39:57 51°13.894 2°55.587 339.3 9.4 336 11.9
2007-07-05 06:40:57 51°14.045 2°55.484 338.9 10.1 336 11.7
2007-07-05 06:41:57 51°14.191 2°55.356 330.2 9.9 325 -999
2007-07-05 06:42:57 51°14.314 2°55.174 314.7 10.8 310 11.6
2007-07-05 06:43:57 51°14.439 2°54.96 319.8 11.4 323 11.7
2007-07-05 06:44:57 51°14.601 2°54.772 327.3 11.5 325 10
2007-07-05 06:45:57 51°14.764 2°54.6 328.3 11.7 328 10.2
2007-07-05 06:46:57 51°14.927 2°54.429 329.6 12 327 9.7
2007-07-05 06:47:57 51°15.093 2°54.259 329.9 11.4 329 10.4
2007-07-05 06:48:57 51°15.254 2°54.091 328.9 12.1 327 10.4
2007-07-05 06:49:57 51°15.418 2°53.909 328.7 12.2 326 10.8
2007-07-05 06:50:57 51°15.582 2°53.738 330.2 11.5 326 10.6
2007-07-05 06:51:57 51°15.737 2°53.577 329.3 11.2 326 11.6
2007-07-05 06:52:57 51°15.897 2°53.404 328.5 12 326 12
2007-07-05 06:53:57 51°16.064 2°53.22 329.1 12.3 324 12
2007-07-05 06:54:57 51°16.24 2°53.053 337 12.5 335 12.4
2007-07-05 06:55:57 51°16.419 2°52.924 338.8 11.1 337 -999
2007-07-05 06:56:57 51°16.596 2°52.782 336.7 12.3 333 12.4
2007-07-05 06:57:57 51°16.787 2°52.667 351.8 11.9 347 9.5
2007-07-05 06:58:57 51°16.981 2°52.623 355.3 11.9 351 10.6
2007-07-05 06:59:57 51°17.182 2°52.57 353.6 12.1 353 9.9
2007-07-05 07:00:57 51°17.387 2°52.515 353.6 12.7 351 10.9
2007-07-05 07:01:57 51°17.591 2°52.462 353.1 12.5 355 10.9
2007-07-05 07:02:57 51°17.8 2°52.443 7.5 12.6 4 10.4
2007-07-05 07:03:57 51°18.007 2°52.512 21.8 12.9 16 11.3
2007-07-05 07:04:57 51°18.182 2°52.703 50.7 12.9 44 11.3
2007-07-05 07:05:57 51°18.277 2°53.003 80.7 13.5 62 11.4
2007-07-05 07:06:57 51°18.367 2°53.31 67.5 12.8 59 11.6
2007-07-05 07:07:57 51°18.471 2°53.607 65.3 12.4 69 11.7
2007-07-05 07:08:57 51°18.568 2°53.909 67.5 13.2 60 11.4
2007-07-05 07:09:57 51°18.662 2°54.215 70.7 12.7 61 11.5
2007-07-05 07:10:57 51°18.753 2°54.52 69.1 12.5 68 11.1
2007-07-05 07:11:57 51°18.849 2°54.826 70.6 12.8 66 11.6
2007-07-05 07:12:57 51°18.933 2°55.135 72.5 12.7 66 11.3
2007-07-05 07:13:57 51°19.022 2°55.448 69 12.5 66 11.5
2007-07-05 07:14:57 51°19.109 2°55.759 72.7 12.8 64 11
2007-07-05 07:15:57 51°19.195 2°56.069 68.9 12.3 73 10.9
2007-07-05 07:16:57 51°19.28 2°56.38 75 13 64 11
2007-07-05 07:17:57 51°19.367 2°56.686 66.7 12.6 67 10.6
2007-07-05 07:18:57 51°19.453 2°56.994 70.8 12.9 62 10.8
2007-07-05 07:19:57 51°19.54 2°57.303 69.2 12.7 70 10.7
2007-07-05 07:20:57 51°19.629 2°57.607 70.6 12.2 60 10.8
2007-07-05 07:21:57 51°19.712 2°57.913 73.3 12.8 68 10.5
2007-07-05 07:22:57 51°19.798 2°58.221 71.6 12.7 63 10.5
2007-07-05 07:23:58 51°19.884 2°58.533 67 12.4 72 10.5
2007-07-05 07:24:57 51°19.968 2°58.836 71.4 12.7 68 10.5
2007-07-05 07:25:57 51°20.058 2°59.144 68.9 12.8 67 10.2
2007-07-05 07:26:57 51°20.147 2°59.454 72.5 12.8 62 10.2
2007-07-05 07:27:57 51°20.231 2°59.761 65.6 12.5 74 10.2
2007-07-05 07:28:57 51°20.313 3°0.074 75.4 12.2 66 10.1
2007-07-05 07:29:57 51°20.389 3°0.385 73.7 12.6 66 10
2007-07-05 07:30:57 51°20.467 3°0.696 72.4 12.7 65 10.4
2007-07-05 07:31:57 51°20.55 3°1.001 71.5 12.6 64 10.1
2007-07-05 07:32:57 51°20.631 3°1.305 69.3 12.1 73 10.3
2007-07-05 07:33:57 51°20.713 3°1.611 72.7 12 69 10.4
2007-07-05 07:34:57 51°20.785 3°1.926 71.8 11.7 65 10.3
2007-07-05 07:35:57 51°20.847 3°2.242 71.2 12.5 69 10.4
2007-07-05 07:36:57 51°20.922 3°2.549 69.3 12.4 72 10.5
2007-07-05 07:37:57 51°20.993 3°2.863 72.1 12.4 68 10.3
2007-07-05 07:38:57 51°21.06 3°3.177 73.3 11.9 74 10.5
2007-07-05 07:39:57 51°21.127 3°3.491 71.1 12.4 65 10.4
2007-07-05 07:40:57 51°21.198 3°3.803 75.9 12.7 66 10.5
2007-07-05 07:41:57 51°21.26 3°4.116 75.5 13.2 74 10.4
2007-07-05 07:42:57 51°21.329 3°4.43 71.8 12.4 76 10.6
2007-07-05 07:43:57 51°21.396 3°4.743 76.9 12.9 69 10.7
2007-07-05 07:44:57 51°21.463 3°5.052 79.1 12.8 65 10.6
2007-07-05 07:45:57 51°21.53 3°5.356 73.7 12.5 69 10.7
2007-07-05 07:46:58 51°21.6 3°5.668 71.1 13.1 75 10.7
2007-07-05 07:47:57 51°21.67 3°5.968 74.7 12.4 71 11
2007-07-05 07:48:57 51°21.736 3°6.276 72.5 12.5 67 10.8
2007-07-05 07:49:57 51°21.803 3°6.578 74.8 11.8 72 11
2007-07-05 07:50:57 51°21.86 3°6.883 76.9 11.9 73 11.2
2007-07-05 07:51:57 51°21.911 3°7.192 77.9 12 84 11.4
2007-07-05 07:52:57 51°21.942 3°7.507 80.7 11.1 81 11.8
2007-07-05 07:53:57 51°21.983 3°7.817 79.3 12 70 11.4
2007-07-05 07:54:57 51°22.026 3°8.127 81.2 11.9 72 11.4
2007-07-05 07:55:58 51°22.056 3°8.443 81.4 11.7 86 11.7
2007-07-05 07:56:57 51°22.09 3°8.737 81.2 11.4 76 12
2007-07-05 07:57:58 51°22.126 3°9.036 79.1 11.1 87 12.2
2007-07-05 07:58:57 51°22.164 3°9.323 79 11.6 80 12.4
2007-07-05 07:59:57 51°22.151 3°9.609 108 10.7 109 13
2007-07-05 08:00:57 51°22.183 3°9.879 65.1 10.9 62 13.2
2007-07-05 08:01:57 51°22.253 3°10.143 75 10.4 84 13.6
2007-07-05 08:02:58 51°22.285 3°10.429 84.7 11.1 76 15.1
2007-07-05 08:03:57 51°22.32 3°10.713 76.2 10.8 85 18
2007-07-05 08:04:58 51°22.359 3°11.011 81.9 11.1 78 15.7
2007-07-05 08:05:57 51°22.394 3°11.291 82.3 11.3 79 15.2
2007-07-05 08:06:57 51°22.427 3°11.576 79.9 11.4 77 14.9
2007-07-05 08:07:57 51°22.463 3°11.862 83.4 11.3 71 14.9
2007-07-05 08:08:57 51°22.501 3°12.15 83.3 11.4 76 14.2
2007-07-05 08:09:57 51°22.53 3°12.447 82.1 11.6 81 13.6
2007-07-05 08:10:57 51°22.555 3°12.731 85.9 10.3 85 12.9
2007-07-05 08:11:57 51°22.573 3°12.956 79.7 6.9 78 12.4
2007-07-05 08:12:57 51°22.588 3°13.087 72.6 3.4 83 12.2
2007-07-05 08:13:58 51°22.599 3°13.163 67.4 2.3 74 12
2007-07-05 08:14:57 51°22.609 3°13.206 69.8 1.3 71 11.9
2007-07-05 08:15:57 51°22.606 3°13.202 38.9 0.7 225 11.9
2007-07-05 08:16:57 51°22.601 3°13.184 17.1 0.8 247 12
2007-07-05 08:17:57 51°22.596 3°13.168 11.1 0.8 248 11.9
2007-07-05 08:18:58 51°22.589 3°13.149 12.3 0.7 232 11.7
2007-07-05 08:19:57 51°22.581 3°13.133 18.6 0.8 222 11.9
2007-07-05 08:20:57 51°22.572 3°13.113 18.7 0.9 228 11.9
2007-07-05 08:21:57 51°22.563 3°13.096 18.6 1 232 12
2007-07-05 08:22:58 51°22.553 3°13.076 20.5 1 239 12.4
2007-07-05 08:23:57 51°22.545 3°13.057 25.2 0.8 243 12
2007-07-05 08:24:57 51°22.536 3°13.039 29.6 0.8 241 12.3
2007-07-05 08:25:57 51°22.529 3°13.019 30 1 232 12.5
2007-07-05 08:26:57 51°22.521 3°12.997 27.5 1 243 12.2
2007-07-05 08:27:57 51°22.53 3°12.99 46.1 1.7 32 12.5
2007-07-05 08:28:57 51°22.575 3°13.103 70.8 7 58 11.9
2007-07-05 08:29:58 51°22.608 3°13.213 79.8 2.7 74 11.6
2007-07-05 08:30:57 51°22.623 3°13.224 40.6 0.4 340 11.6
2007-07-05 08:31:57 51°22.632 3°13.203 25.5 1.1 294 11.3
2007-07-05 08:32:57 51°22.636 3°13.176 15.1 1 277 11.5
2007-07-05 08:33:57 51°22.637 3°13.151 15.5 0.7 262 11.5
2007-07-05 08:34:58 51°22.634 3°13.128 21.7 0.8 247 11.8
2007-07-05 08:35:57 51°22.63 3°13.104 25.7 1 255 12.2
2007-07-05 08:36:58 51°22.624 3°13.078 28.7 1.1 258 12.1
2007-07-05 08:37:57 51°22.619 3°13.053 29 0.9 266 12.1
2007-07-05 08:38:58 51°22.614 3°13.027 29.6 1.1 261 11.9
2007-07-05 08:39:57 51°22.611 3°13.003 26.2 1 253 11.7
2007-07-05 08:40:57 51°22.607 3°12.979 27.1 1.1 265 11.7
2007-07-05 08:41:57 51°22.601 3°12.958 29.8 0.8 252 12
2007-07-05 08:42:58 51°22.597 3°12.937 29.3 0.9 254 12.1
2007-07-05 08:43:58 51°22.592 3°12.916 31.8 0.9 257 12.3
2007-07-05 08:44:57 51°22.589 3°12.897 29.3 1 269 12.2
2007-07-05 08:45:58 51°22.588 3°12.878 25.2 0.7 299 12.2
2007-07-05 08:46:57 51°22.612 3°12.854 351.7 2.7 321 12.2
2007-07-05 08:47:57 51°22.643 3°12.792 315.9 3.2 296 12.3
2007-07-05 08:48:58 51°22.643 3°12.695 259.3 4.1 255 12.3
2007-07-05 08:49:58 51°22.619 3°12.579 260.6 4.6 254 12.7
2007-07-05 08:50:58 51°22.6 3°12.455 267.8 5 260 13.1
2007-07-05 08:51:58 51°22.584 3°12.331 266.3 4.9 259 13.1
2007-07-05 08:52:58 51°22.572 3°12.198 269.1 5.2 261 13.3
2007-07-05 08:53:57 51°22.56 3°12.066 269.9 5.1 261 13.4
2007-07-05 08:54:58 51°22.544 3°11.933 264.9 5.1 261 14
2007-07-05 08:55:57 51°22.53 3°11.803 268 5.3 260 14
2007-07-05 08:56:58 51°22.517 3°11.66 269.2 5.4 261 14.3
2007-07-05 08:57:57 51°22.498 3°11.525 263.1 5.4 256 14.4
2007-07-05 08:58:58 51°22.476 3°11.387 264.3 5.5 256 14.8
2007-07-05 08:59:58 51°22.452 3°11.253 264.7 5.3 252 15
2007-07-05 09:00:58 51°22.428 3°11.115 266.6 5.5 256 14.9
2007-07-05 09:01:58 51°22.404 3°10.967 268.4 5.8 255 14.7
2007-07-05 09:02:57 51°22.379 3°10.825 266.9 5.7 253 15.7
2007-07-05 09:03:58 51°22.351 3°10.68 266.4 5.7 253 17.2
2007-07-05 09:04:57 51°22.32 3°10.543 263.8 5.4 248 17.3
2007-07-05 09:05:58 51°22.289 3°10.415 268.1 5.2 250 14.6
2007-07-05 09:06:58 51°22.264 3°10.285 276 5 253 14.3
2007-07-05 09:07:57 51°22.245 3°10.166 278.7 4.4 257 13.3
2007-07-05 09:08:58 51°22.226 3°10.047 276.1 4.8 256 13.1
2007-07-05 09:09:57 51°22.205 3°9.927 273.2 4.8 251 12.5
2007-07-05 09:10:58 51°22.186 3°9.801 274.9 4.9 258 12.5
2007-07-05 09:11:58 51°22.163 3°9.69 270.7 4.5 250 12.4
2007-07-05 09:12:58 51°22.149 3°9.566 281.3 5.1 264 12.5
2007-07-05 09:13:58 51°22.14 3°9.435 282.8 4.9 261 12.6
2007-07-05 09:14:57 51°22.128 3°9.322 278.1 4.6 262 12.3
2007-07-05 09:15:58 51°22.112 3°9.207 275 4.3 256 11.5
2007-07-05 09:16:57 51°22.101 3°9.091 280.5 4.2 264 11.5
2007-07-05 09:17:58 51°22.092 3°8.981 277.8 4.3 259 11.6
2007-07-05 09:18:57 51°22.079 3°8.874 276.4 4.2 263 11.7
2007-07-05 09:19:58 51°22.071 3°8.751 280.1 4.6 265 11.1
2007-07-05 09:20:57 51°22.066 3°8.623 281.5 5.1 267 11.3
2007-07-05 09:21:58 51°22.06 3°8.489 280.6 5.1 265 11.1
2007-07-05 09:22:57 51°22.051 3°8.37 277.9 4.5 261 11.1
2007-07-05 09:23:57 51°22.041 3°8.249 277.9 4.8 261 10.9
2007-07-05 09:24:58 51°22.033 3°8.122 279.5 4.8 263 10.8
2007-07-05 09:25:57 51°22.025 3°7.993 280.8 4.8 265 10.6
2007-07-05 09:26:58 51°22.019 3°7.857 279.1 5 267 11
2007-07-05 09:27:57 51°22.012 3°7.73 279.7 4.6 262 10.3
2007-07-05 09:28:58 51°22.002 3°7.609 278.4 4.4 264 10.9
2007-07-05 09:29:57 51°21.994 3°7.496 278.4 4.3 265 11.4
2007-07-05 09:30:58 51°21.984 3°7.377 276.5 4.4 263 11.1
2007-07-05 09:31:58 51°21.98 3°7.249 282.2 5.1 268 11
2007-07-05 09:32:57 51°21.979 3°7.117 283 5.1 269 10.9
2007-07-05 09:33:58 51°21.974 3°6.984 279.1 4.5 264 10.9
2007-07-05 09:34:57 51°21.966 3°6.865 277.4 4.1 262 10.2
2007-07-05 09:35:58 51°21.96 3°6.744 279.4 4.9 268 11.2
2007-07-05 09:36:58 51°21.956 3°6.616 279.4 4.8 265 10.7
2007-07-05 09:37:58 51°21.947 3°6.49 275 4.8 262 10.8
2007-07-05 09:38:58 51°21.937 3°6.367 275 4.9 262 10.4
2007-07-05 09:39:58 51°21.925 3°6.245 274.3 4.5 262 10.7
2007-07-05 09:40:58 51°21.917 3°6.08 275.8 8.8 269 10.9
2007-07-05 09:41:58 51°21.902 3°5.793 269.3 12 263 10.1
2007-07-05 09:42:58 51°21.852 3°5.448 258.3 13.5 254 10.1
2007-07-05 09:43:58 51°21.776 3°5.106 252.7 13.5 251 10.3
2007-07-05 09:44:58 51°21.7 3°4.767 252.8 13.5 251 10.5
2007-07-05 09:45:57 51°21.624 3°4.434 252.5 13.4 249 10.3
2007-07-05 09:46:58 51°21.544 3°4.088 252.3 13.7 250 10
2007-07-05 09:47:58 51°21.467 3°3.749 252.3 13.4 251 10
2007-07-05 09:48:58 51°21.376 3°3.42 246.1 13.5 242 10.3
2007-07-05 09:49:58 51°21.275 3°3.109 245.1 13.3 244 10.4
2007-07-05 09:50:58 51°21.174 3°2.797 247.1 13.3 241 10.4
2007-07-05 09:51:58 51°21.073 3°2.48 246.3 13.3 241 9.7
2007-07-05 09:52:57 51°20.973 3°2.166 246.2 13.3 243 9.3
2007-07-05 09:53:58 51°20.871 3°1.836 247.5 13.8 243 9.7
2007-07-05 09:54:58 51°20.769 3°1.513 246.9 13.6 243 9.7
2007-07-05 09:55:58 51°20.667 3°1.196 246.1 13.3 243 9.3
2007-07-05 09:56:58 51°20.565 3°0.882 245.1 13.3 242 9.2
2007-07-05 09:57:58 51°20.464 3°0.566 245.9 13.3 243 9.2
2007-07-05 09:58:58 51°20.361 3°0.253 244.3 12.9 242 8.4
2007-07-05 09:59:58 51°20.261 2°59.941 245.6 13.2 243 8.5
2007-07-05 10:00:58 51°20.16 2°59.625 246.5 13.5 244 9.3
2007-07-05 10:01:58 51°20.057 2°59.307 246.7 13.6 243 9.1
2007-07-05 10:02:58 51°19.954 2°58.99 246.8 13.1 241 9
2007-07-05 10:03:58 51°19.851 2°58.677 246.3 13.5 242 9.3
2007-07-05 10:04:58 51°19.749 2°58.358 246.8 13.3 242 8.9
2007-07-05 10:05:58 51°19.644 2°58.041 247 13.5 245 9.1
2007-07-05 10:06:57 51°19.548 2°57.722 248.8 13.7 245 9.2
2007-07-05 10:07:58 51°19.448 2°57.396 248.7 13.4 244 9.3
2007-07-05 10:08:57 51°19.349 2°57.09 247.4 13.3 243 9
2007-07-05 10:09:58 51°19.253 2°56.761 250.7 13.5 247 9.2
2007-07-05 10:10:58 51°19.161 2°56.434 250.9 13.4 245 9.4
2007-07-05 10:11:58 51°19.068 2°56.108 250.9 13.5 246 9.7
2007-07-05 10:12:58 51°18.975 2°55.78 251.4 13.6 246 9.5
2007-07-05 10:13:58 51°18.881 2°55.454 250.5 13.5 245 10.1
2007-07-05 10:14:58 51°18.787 2°55.128 249.8 13.4 245 9.5
2007-07-05 10:15:58 51°18.692 2°54.808 250.2 13.2 246 9.7
2007-07-05 10:16:58 51°18.596 2°54.484 249.9 13.4 245 9.7
2007-07-05 10:17:58 51°18.5 2°54.169 250.4 13.1 245 10.1
2007-07-05 10:18:58 51°18.405 2°53.859 251.1 12.5 243 -999
2007-07-05 10:19:58 51°18.313 2°53.542 251.6 13.5 246 10
2007-07-05 10:20:58 51°18.225 2°53.226 253.7 13 250 9.7
2007-07-05 10:21:58 51°18.149 2°52.9 256.6 13.3 250 9.8
2007-07-05 10:22:58 51°18.049 2°52.59 238.5 13.4 225 9.6
2007-07-05 10:23:58 51°17.839 2°52.499 176.9 13.7 180 9.5
2007-07-05 10:24:57 51°17.618 2°52.544 168.9 13.8 169 9.6
2007-07-05 10:25:58 51°17.391 2°52.604 167.4 13.3 167 9.3
2007-07-05 10:26:58 51°17.173 2°52.704 157.7 13.5 159 8.6
2007-07-05 10:27:58 51°17.003 2°52.921 132.4 12.6 136 8.3
2007-07-05 10:28:58 51°16.881 2°53.183 118.5 12.4 120 7.5
2007-07-05 10:29:58 51°16.804 2°53.493 108.4 11.9 104 10.3
2007-07-05 10:30:58 51°16.805 2°53.813 82.2 11.8 87 10.2
2007-07-05 10:31:58 51°16.864 2°54.113 68.1 11.6 66 10
2007-07-05 10:32:58 51°16.947 2°54.399 68.8 11.9 60 9.7
2007-07-05 10:33:58 51°17.015 2°54.695 70.3 13.2 74 9.5
2007-07-05 10:34:58 51°17.092 2°54.978 68.9 11.3 73 9.9
2007-07-05 10:35:58 51°17.163 2°55.269 69.6 11.9 73 9.6
2007-07-05 10:36:58 51°17.236 2°55.56 68.9 12.2 73 9.5
2007-07-05 10:37:58 51°17.306 2°55.846 67.3 11.7 71 9.4
2007-07-05 10:38:58 51°17.376 2°56.128 68 11.5 61 9.4
2007-07-05 10:39:58 51°17.457 2°56.401 64 11.1 60 9.3
2007-07-05 10:40:58 51°17.54 2°56.671 63.1 11.2 70 9.2
2007-07-05 10:41:58 51°17.624 2°56.937 64.2 10.9 68 9.4
2007-07-05 10:42:58 51°17.71 2°57.207 64.9 11.2 59 9.4
2007-07-05 10:43:58 51°17.79 2°57.484 61.6 11.6 69 9
2007-07-05 10:44:58 51°17.872 2°57.755 63.6 11.3 67 9.5
2007-07-05 10:45:58 51°17.953 2°58.027 65.7 11.5 70 9.3
2007-07-05 10:46:58 51°18.037 2°58.297 65.1 11.4 63 9.1
2007-07-05 10:47:58 51°18.123 2°58.57 66.4 11.3 63 8.6
2007-07-05 10:48:58 51°18.199 2°58.848 67.8 11.5 67 7.9
2007-07-05 10:49:58 51°18.285 2°59.122 64.7 11.7 65 7.9
2007-07-05 10:50:58 51°18.371 2°59.399 67.2 11.7 63 7.5
2007-07-05 10:51:58 51°18.455 2°59.675 66.5 11.4 69 7.6
2007-07-05 10:52:58 51°18.539 2°59.949 66 11.5 61 7.6
2007-07-05 10:53:58 51°18.621 3°0.225 65.6 11.3 61 7.3
2007-07-05 10:54:58 51°18.704 3°0.5 69.1 11.7 57 7.2
2007-07-05 10:55:58 51°18.773 3°0.784 71.1 11.6 74 7.3
2007-07-05 10:56:58 51°18.839 3°1.072 72.6 11.5 71 7.3
2007-07-05 10:57:58 51°18.899 3°1.362 67.9 11.1 81 7.5
2007-07-05 10:58:58 51°18.959 3°1.655 72 11.7 71 5.3
2007-07-05 10:59:58 51°19.011 3°1.933 67.8 9.8 72 7.5
2007-07-05 11:00:58 51°19.048 3°2.148 71.2 8 87 7.7
2007-07-05 11:01:58 51°19.081 3°2.337 69.1 7.3 80 7.7
2007-07-05 11:02:58 51°19.119 3°2.517 70.1 7.2 73 7.7
2007-07-05 11:03:58 51°19.154 3°2.693 71.4 6.6 69 7.7
2007-07-05 11:04:58 51°19.18 3°2.824 63.3 3.3 69 7.4
2007-07-05 11:05:58 51°19.186 3°2.843 28.3 0.5 191 7.9
2007-07-05 11:06:58 51°19.179 3°2.83 9.5 0.7 212 7.9
2007-07-05 11:07:58 51°19.167 3°2.818 3.6 0.9 207 7.5
2007-07-05 11:08:58 51°19.152 3°2.807 5.1 1.2 215 8.1
2007-07-05 11:09:58 51°19.136 3°2.797 13 1.2 211 7.7
2007-07-05 11:10:58 51°19.119 3°2.786 16.5 1.2 203 7.9
2007-07-05 11:11:58 51°19.102 3°2.775 17.7 1.2 196 8
2007-07-05 11:12:58 51°19.083 3°2.765 18.9 1.2 187 7.9
2007-07-05 11:13:58 51°19.065 3°2.754 23.5 1.2 200 7.9
2007-07-05 11:14:58 51°19.047 3°2.744 24.6 1.1 194 7.8
2007-07-05 11:15:58 51°19.029 3°2.732 24.9 1.1 215 7.9
2007-07-05 11:16:58 51°19.013 3°2.722 22.2 1.1 209 7.8
2007-07-05 11:17:58 51°18.996 3°2.713 18.1 1 184 7.9
2007-07-05 11:18:58 51°18.981 3°2.704 14.4 1 177 8
2007-07-05 11:19:58 51°18.964 3°2.694 16 1 201 8.1
2007-07-05 11:20:58 51°18.948 3°2.684 18 1 195 7.6
2007-07-05 11:21:58 51°18.933 3°2.676 19.2 0.8 189 7.6
2007-07-05 11:22:58 51°18.917 3°2.666 16.6 1 201 7.9
2007-07-05 11:23:58 51°18.902 3°2.658 15.5 1.1 217 7.2
2007-07-05 11:24:58 51°18.886 3°2.647 11.9 1 203 8.1
2007-07-05 11:25:58 51°18.869 3°2.639 15.3 1.2 200 7.9
2007-07-05 11:26:58 51°18.851 3°2.628 18.7 1.3 208 7.7
2007-07-05 11:27:58 51°18.831 3°2.616 22.6 1.1 207 7.9
2007-07-05 11:28:58 51°18.813 3°2.605 27.3 1 188 7.6
2007-07-05 11:29:58 51°18.797 3°2.594 25.8 1.1 211 7.9
2007-07-05 11:30:58 51°18.781 3°2.583 24.7 1 200 7.7
2007-07-05 11:31:58 51°18.766 3°2.574 24.2 1 181 7.8
2007-07-05 11:32:58 51°18.76 3°2.568 23.6 0.6 8 7.9
2007-07-05 11:33:58 51°18.783 3°2.575 27.1 1.9 14 7.3
2007-07-05 11:34:58 51°18.82 3°2.582 23.2 2.3 8 8.3
2007-07-05 11:35:58 51°18.862 3°2.596 28.7 2.6 16 8.2
2007-07-05 11:36:58 51°18.903 3°2.629 41.2 3 36 7.6
2007-07-05 11:37:58 51°18.942 3°2.672 42.5 2.9 34 7.7
2007-07-05 11:38:58 51°18.978 3°2.719 43.4 2.8 35 7.9
2007-07-05 11:39:58 51°19.014 3°2.765 41.2 2.7 38 8
2007-07-05 11:40:58 51°19.055 3°2.806 39.9 3.5 33 8.2
2007-07-05 11:41:58 51°19.137 3°2.907 43.7 7.5 40 8
2007-07-05 11:42:58 51°19.242 3°3.036 43.2 8.1 36 8
2007-07-05 11:43:58 51°19.352 3°3.166 42.4 7.5 37 7.6
2007-07-05 11:44:58 51°19.419 3°3.203 13.1 2 345 7.7
2007-07-05 11:45:58 51°19.422 3°3.186 348.9 0.7 255 8.1
2007-07-05 11:46:58 51°19.416 3°3.172 346.5 0.7 220 8
2007-07-05 11:47:58 51°19.405 3°3.165 357.1 1 203 8.2
2007-07-05 11:48:58 51°19.39 3°3.159 8.3 1.1 190 7.9
2007-07-05 11:49:58 51°19.374 3°3.15 18.8 1.1 202 8.2
2007-07-05 11:50:58 51°19.358 3°3.143 21.7 1 199 8.1
2007-07-05 11:51:58 51°19.343 3°3.134 21 1 204 7.9
2007-07-05 11:52:58 51°19.347 3°3.128 6.5 1.5 339 8
2007-07-05 11:53:58 51°19.387 3°3.093 349.6 3.5 334 8.4
2007-07-05 11:54:58 51°19.445 3°3.054 356.3 3.9 337 8
2007-07-05 11:55:58 51°19.499 3°3.005 341.5 3.1 318 7.9
2007-07-05 11:56:58 51°19.513 3°2.975 349.7 0.9 289 8.3
2007-07-05 11:57:58 51°19.514 3°2.956 346.5 0.6 262 8
2007-07-05 11:58:58 51°19.508 3°2.944 350.6 0.6 221 7.8
2007-07-05 11:59:58 51°19.497 3°2.936 358.2 0.8 203 7.8
2007-07-05 12:00:58 51°19.483 3°2.928 5 0.9 197 8.2
2007-07-05 12:01:58 51°19.468 3°2.92 11.7 1 192 7.9
2007-07-05 12:02:58 51°19.452 3°2.91 12.4 1.1 202 8
2007-07-05 12:03:58 51°19.436 3°2.903 15.3 1 203 8
2007-07-05 12:04:58 51°19.419 3°2.896 14.4 1.1 187 8.1
2007-07-05 12:05:58 51°19.401 3°2.891 21 1.1 185 8.2
2007-07-05 12:06:58 51°19.385 3°2.882 21.9 0.9 201 8.3
2007-07-05 12:07:58 51°19.395 3°2.883 18.1 1.9 -999 8.5
2007-07-05 12:08:58 51°19.445 3°2.893 31.1 3.4 33 8
2007-07-05 12:09:58 51°19.469 3°2.979 61.9 3.1 60 8.1
2007-07-05 12:10:58 51°19.49 3°3.02 42.9 1.3 45 7.9
2007-07-05 12:11:58 51°19.498 3°3.023 23.1 0.2 341 7.8
2007-07-05 12:12:58 51°19.497 3°3.015 13.8 0.3 208 8
2007-07-05 12:13:58 51°19.489 3°3.005 11 0.7 222 8.1
2007-07-05 12:14:58 51°19.478 3°2.996 2.1 0.7 192 7.6
2007-07-05 12:15:58 51°19.467 3°2.987 0.3 1 209 8.2
2007-07-05 12:16:58 51°19.452 3°2.982 0.9 0.9 184 8.2
2007-07-05 12:17:58 51°19.436 3°2.976 7.1 1 190 8
2007-07-05 12:18:58 51°19.417 3°2.971 13.4 1.1 183 7.5
2007-07-05 12:19:58 51°19.407 3°2.966 10.8 0.3 273 8.3
2007-07-05 12:20:58 51°19.421 3°2.944 335 1.9 311 7.8
2007-07-05 12:21:58 51°19.429 3°2.868 276.8 3.8 253 8.2
2007-07-05 12:22:58 51°19.385 3°2.754 244 5.9 239 7.8
2007-07-05 12:23:58 51°19.338 3°2.602 251.8 6.6 247 8.4
2007-07-05 12:24:58 51°19.29 3°2.436 250.4 7 246 8.3
2007-07-05 12:25:58 51°19.241 3°2.269 250.2 6.9 243 8.4
2007-07-05 12:26:58 51°19.196 3°2.124 248.8 5.2 243 8.5
2007-07-05 12:27:58 51°19.16 3°2.01 252.5 4.6 242 8.6
2007-07-05 12:28:58 51°19.125 3°1.903 251.2 4.4 242 8.5
2007-07-05 12:29:58 51°19.092 3°1.801 250.5 4.3 241 8.8
2007-07-05 12:30:58 51°19.058 3°1.702 249.3 4.3 243 8.6
2007-07-05 12:31:58 51°19.024 3°1.602 249.6 4.2 242 8.3
2007-07-05 12:32:58 51°18.991 3°1.504 249.1 4 240 7.9
2007-07-05 12:33:58 51°18.959 3°1.41 251.8 4 243 8.2
2007-07-05 12:34:58 51°18.925 3°1.317 249.2 4.1 242 8.6
2007-07-05 12:35:58 51°18.894 3°1.217 251.8 4.3 243 8.8
2007-07-05 12:36:58 51°18.862 3°1.12 251.8 4.1 243 8.8
2007-07-05 12:37:58 51°18.831 3°1.026 251.9 3.8 240 8.5
2007-07-05 12:38:58 51°18.803 3°0.929 256.2 4.1 246 8.6
2007-07-05 12:39:58 51°18.779 3°0.828 260.4 4.2 250 8.5
2007-07-05 12:40:58 51°18.755 3°0.726 259.1 4.2 250 8.5
2007-07-05 12:41:58 51°18.733 3°0.63 261.2 3.7 251 8.7
2007-07-05 12:42:58 51°18.712 3°0.538 261.2 3.8 249 8.7
2007-07-05 12:43:58 51°18.687 3°0.446 253.6 3.8 242 8.7
2007-07-05 12:44:58 51°18.657 3°0.35 253.6 4.2 244 8.5
2007-07-05 12:45:58 51°18.629 3°0.255 255.8 3.9 246 8.5
2007-07-05 12:46:58 51°18.602 3°0.158 253.2 3.9 244 8.6
2007-07-05 12:47:58 51°18.573 3°0.067 251.9 3.8 244 8.7
2007-07-05 12:48:58 51°18.545 2°59.973 254 4.1 245 8.8
2007-07-05 12:49:58 51°18.516 2°59.882 252.1 3.8 242 9
2007-07-05 12:50:58 51°18.487 2°59.801 253.2 3.2 238 8.9
2007-07-05 12:51:58 51°18.462 2°59.721 254.5 3.6 243 9
2007-07-05 12:52:58 51°18.434 2°59.635 252.8 3.5 240 8.9
2007-07-05 12:53:58 51°18.404 2°59.55 251.3 3.7 241 9.1
2007-07-05 12:54:58 51°18.375 2°59.466 253.3 3.6 243 9.2
2007-07-05 12:55:58 51°18.348 2°59.377 253.8 3.8 243 9.2
2007-07-05 12:56:58 51°18.318 2°59.297 249.7 3.4 239 9
2007-07-05 12:57:58 51°18.292 2°59.219 253.8 3.2 240 8.9
2007-07-05 12:58:58 51°18.266 2°59.142 253.7 3.2 237 9.5
2007-07-05 12:59:58 51°18.239 2°59.066 252.6 3.4 244 9.3
2007-07-05 13:00:58 51°18.215 2°58.98 257.2 3.7 249 9.6
2007-07-05 13:01:58 51°18.189 2°58.887 254.2 3.9 246 9.5
2007-07-05 13:02:58 51°18.163 2°58.795 254.9 3.8 246 9.7
2007-07-05 13:03:58 51°18.137 2°58.704 252.5 3.6 243 9.6
2007-07-05 13:04:58 51°18.108 2°58.617 251.7 3.8 244 9.7
2007-07-05 13:05:58 51°18.081 2°58.53 251.6 3.6 242 9.9
2007-07-05 13:06:58 51°18.055 2°58.447 253.8 3.4 243 10.1
2007-07-05 13:07:58 51°18.032 2°58.364 255.6 3.5 247 10.2
2007-07-05 13:08:58 51°18.007 2°58.281 251.3 3.3 241 10.5
2007-07-05 13:09:58 51°17.98 2°58.205 252.3 3.4 243 10.9
2007-07-05 13:10:58 51°17.955 2°58.122 254.5 3.5 243 10.8
2007-07-05 13:11:58 51°17.929 2°58.044 251.9 3.3 242 10.7
2007-07-05 13:12:58 51°17.904 2°57.967 254 3 241 11.2
2007-07-05 13:13:58 51°17.882 2°57.893 255.9 3.1 246 11.1
2007-07-05 13:14:58 51°17.86 2°57.817 254.7 3.1 244 10.8
2007-07-05 13:15:58 51°17.835 2°57.745 251.6 3.1 239 11.2
2007-07-05 13:16:58 51°17.809 2°57.673 252.8 3 243 11.3
2007-07-05 13:17:58 51°17.784 2°57.612 250 2.6 234 11.7
2007-07-05 13:18:58 51°17.76 2°57.552 253.2 2.6 241 11.5
2007-07-05 13:19:58 51°17.739 2°57.49 254.3 2.6 242 11.4
2007-07-05 13:20:58 51°17.718 2°57.429 254.4 2.4 242 11.4
2007-07-05 13:21:58 51°17.696 2°57.37 252.3 2.6 238 11.2
2007-07-05 13:22:58 51°17.674 2°57.311 253 2.4 237 11
2007-07-05 13:23:58 51°17.653 2°57.259 252.2 2.2 238 11.2
2007-07-05 13:24:58 51°17.633 2°57.208 253.4 2.3 243 11.2
2007-07-05 13:25:58 51°17.613 2°57.154 252.5 2.4 239 11.2
2007-07-05 13:26:58 51°17.592 2°57.099 250.5 2.4 235 11.1
2007-07-05 13:27:58 51°17.571 2°57.045 253 2.3 243 11.3
2007-07-05 13:28:58 51°17.552 2°56.989 255.5 2.2 241 11
2007-07-05 13:29:58 51°17.532 2°56.937 251.4 2.3 238 11.2
2007-07-05 13:30:58 51°17.512 2°56.882 254.5 2.3 240 10.9
2007-07-05 13:31:58 51°17.491 2°56.836 248.9 2 234 11.1
2007-07-05 13:32:58 51°17.471 2°56.795 251 1.9 234 11.3
2007-07-05 13:33:58 51°17.455 2°56.748 255.1 2.1 241 11.3
2007-07-05 13:34:58 51°17.436 2°56.698 252.6 2.2 244 11.1
2007-07-05 13:35:58 51°17.421 2°56.646 256.3 2.2 245 11.5
2007-07-05 13:36:58 51°17.405 2°56.595 253.7 2.1 238 11.1
2007-07-05 13:37:58 51°17.384 2°56.556 249.9 1.9 231 11.4
2007-07-05 13:38:58 51°17.369 2°56.514 255.4 2.1 235 11.3
2007-07-05 13:39:58 51°17.346 2°56.447 254 3.9 247 11.6
2007-07-05 13:40:58 51°17.317 2°56.342 253.3 4.6 246 11.5
2007-07-05 13:41:58 51°17.283 2°56.219 253.6 5.3 248 11.7
2007-07-05 13:42:58 51°17.24 2°56.093 241.1 5.5 232 11.7
2007-07-05 13:43:58 51°17.183 2°55.981 239.5 5.4 232 11.8
2007-07-05 13:44:58 51°17.129 2°55.879 240 5 233 12
2007-07-05 13:45:58 51°17.075 2°55.761 242.4 6.6 236 12
2007-07-05 13:46:58 51°17.006 2°55.608 241.2 5.7 234 11.8
2007-07-05 13:47:58 51°16.967 2°55.531 241.9 2.7 222 12.4
2007-07-05 13:48:58 51°16.94 2°55.496 240.7 1.7 216 12.3
2007-07-05 13:49:58 51°16.918 2°55.485 234.7 1.2 175 12.5
2007-07-05 13:50:58 51°16.897 2°55.485 233 1.3 174 12.3
2007-07-05 13:51:58 51°16.88 2°55.49 234.9 1.1 169 12
2007-07-05 13:52:58 51°16.866 2°55.498 237.7 0.7 153 12.5
2007-07-05 13:53:58 51°16.853 2°55.507 237.3 0.9 153 12.4
2007-07-05 13:54:58 51°16.841 2°55.526 233 1.1 141 12.7
2007-07-05 13:55:58 51°16.828 2°55.538 238.1 0.8 162 12.2
2007-07-05 13:56:58 51°16.817 2°55.547 240.7 0.8 147 12.4
2007-07-05 13:57:58 51°16.805 2°55.557 244 0.6 148 12.3
2007-07-05 13:58:58 51°16.798 2°55.564 246.8 0.6 141 12.3
2007-07-05 13:59:58 51°16.792 2°55.578 245.8 0.6 121 12.3
2007-07-05 14:00:58 51°16.786 2°55.593 246.3 0.5 125 12.4
2007-07-05 14:01:58 51°16.78 2°55.603 246.7 0.6 132 12.5
2007-07-05 14:02:58 51°16.772 2°55.617 240.2 0.9 126 12.4
2007-07-05 14:03:58 51°16.764 2°55.644 231.7 1.2 102 12.2
2007-07-05 14:04:58 51°16.756 2°55.681 221.1 1.6 105 12.8
2007-07-05 14:05:58 51°16.739 2°55.704 231.7 1.2 143 12.3
2007-07-05 14:06:58 51°16.733 2°55.704 264.3 0.5 286 12.7
2007-07-05 14:07:58 51°16.738 2°55.679 268.5 1.3 281 12.6
2007-07-05 14:08:58 51°16.741 2°55.647 264.1 1.2 273 12.9
2007-07-05 14:09:58 51°16.74 2°55.616 259.9 1.1 274 12.3
2007-07-05 14:10:58 51°16.739 2°55.586 262.7 1.4 273 12.5
2007-07-05 14:11:58 51°16.741 2°55.553 264.7 1.1 280 12.6
2007-07-05 14:12:58 51°16.745 2°55.526 265.6 0.9 294 12.7
2007-07-05 14:13:58 51°16.749 2°55.501 262.7 1.1 280 12.6
2007-07-05 14:14:58 51°16.753 2°55.475 264.8 1.2 288 13
2007-07-05 14:15:58 51°16.758 2°55.445 265.2 1 281 12.7
2007-07-05 14:16:58 51°16.762 2°55.423 263.7 1.1 282 13.2
2007-07-05 14:17:58 51°16.767 2°55.391 265.6 1.2 286 12.7
2007-07-05 14:18:58 51°16.772 2°55.362 265.1 1.1 292 13.1
2007-07-05 14:19:58 51°16.775 2°55.338 261.7 0.7 278 12.8
2007-07-05 14:20:58 51°16.779 2°55.315 264.9 1 291 13.1
2007-07-05 14:21:58 51°16.786 2°55.289 266.2 0.9 300 13
2007-07-05 14:22:58 51°16.794 2°55.275 265.7 0.9 303 13.1
2007-07-05 14:23:58 51°16.783 2°55.25 222 2.4 185 13.1
2007-07-05 14:24:58 51°16.75 2°55.225 239.1 2.4 220 12.8
2007-07-05 14:25:58 51°16.716 2°55.173 234 3.3 215 13.1
2007-07-05 14:26:58 51°16.664 2°55.123 230.5 3.6 218 13.1
2007-07-05 14:27:58 51°16.624 2°55.054 235.9 3.7 218 13.5
2007-07-05 14:28:58 51°16.587 2°54.985 243.7 3.6 233 13.9
2007-07-05 14:29:58 51°16.548 2°54.917 236.3 3.6 227 13.4
2007-07-05 14:30:58 51°16.509 2°54.847 239.5 3.5 229 13.7
2007-07-05 14:31:58 51°16.481 2°54.783 242.6 2.6 229 13.6
2007-07-05 14:32:58 51°16.452 2°54.736 244.7 2.3 239 13.5
2007-07-05 14:33:58 51°16.438 2°54.699 247.4 1.9 237 13.7
2007-07-05 14:34:58 51°16.419 2°54.663 241.2 1.5 222 13.6
2007-07-05 14:35:58 51°16.403 2°54.626 250.4 1.6 239 13.8
2007-07-05 14:36:58 51°16.379 2°54.595 237.9 2 223 13.7
2007-07-05 14:37:58 51°16.361 2°54.548 243.8 2.1 229 13.7
2007-07-05 14:38:58 51°16.339 2°54.517 244.3 1.7 231 13.9
2007-07-05 14:39:58 51°16.324 2°54.472 246.1 2.1 238 13.8
2007-07-05 14:40:58 51°16.302 2°54.43 242 2 230 13.5
2007-07-05 14:41:58 51°16.29 2°54.379 250.2 2.2 248 13.8
2007-07-05 14:42:58 51°16.264 2°54.347 235.2 1.7 218 14
2007-07-05 14:43:58 51°16.253 2°54.315 256.2 1.6 266 13.7
2007-07-05 14:44:58 51°16.253 2°54.275 257.6 1.2 274 14
2007-07-05 14:45:58 51°16.259 2°54.255 258.2 0.5 334 13.9
2007-07-05 14:46:58 51°16.266 2°54.265 251 0.8 61 14
2007-07-05 14:47:58 51°16.266 2°54.282 244.7 0.4 106 14.1
2007-07-05 14:48:58 51°16.26 2°54.263 252.5 1.4 260 14
2007-07-05 14:49:58 51°16.267 2°54.243 266.5 0.9 352 14.1
2007-07-05 14:50:58 51°16.285 2°54.264 265.4 1.5 54 13.7
2007-07-05 14:51:58 51°16.291 2°54.286 242.1 0.5 95 14
2007-07-05 14:52:58 51°16.285 2°54.291 238.5 0.7 157 13.9
2007-07-05 14:53:58 51°16.277 2°54.29 250.7 0.6 256 13.8
2007-07-05 14:54:58 51°16.286 2°54.296 259.7 0.8 30 14.1
2007-07-05 14:55:58 51°16.291 2°54.308 246.1 0.6 88 14.1
2007-07-05 14:56:58 51°16.287 2°54.323 233 1 181 13.9
2007-07-05 14:57:58 51°16.269 2°54.3 247.5 1.4 244 13.9
2007-07-05 14:58:58 51°16.268 2°54.291 246.8 0.2 75 14
2007-07-05 14:59:58 51°16.271 2°54.299 256.3 0.6 27 14.1
2007-07-05 15:00:58 51°16.288 2°54.33 280.3 2.6 52 14
2007-07-05 15:01:58 51°16.312 2°54.397 316.3 3.2 63 13.7
2007-07-05 15:02:58 51°16.346 2°54.451 325.9 3.6 2 14.2
2007-07-05 15:03:58 51°16.364 2°54.412 239.3 1.4 200 14.2
2007-07-05 15:04:58 51°16.325 2°54.374 234.8 4 216 14.6
2007-07-05 15:05:58 51°16.284 2°54.335 244.9 2.3 241 14.2
2007-07-05 15:06:58 51°16.274 2°54.299 242.5 0.8 218 14
2007-07-05 15:07:58 51°16.27 2°54.304 242.6 0.3 129 13.8
2007-07-05 15:08:58 51°16.269 2°54.307 248.3 0.1 339 14.1
2007-07-05 15:09:58 51°16.274 2°54.305 258.3 0.6 346 14.1
2007-07-05 15:10:58 51°16.286 2°54.3 265.9 0.9 334 13.8
2007-07-05 15:11:58 51°16.301 2°54.298 261.4 0.8 3 14.1
2007-07-05 15:12:58 51°16.313 2°54.296 261 0.7 347 14.1
2007-07-05 15:13:58 51°16.326 2°54.293 263.4 0.8 345 14.1
2007-07-05 15:14:58 51°16.343 2°54.286 266.4 1 355 14.1
2007-07-05 15:15:58 51°16.353 2°54.289 246.1 0.3 85 14.3
2007-07-05 15:16:58 51°16.344 2°54.298 225.5 0.9 153 14
2007-07-05 15:17:58 51°16.33 2°54.3 239.9 0.6 216 14.1
2007-07-05 15:18:58 51°16.325 2°54.285 243.9 0.7 227 13.9
2007-07-05 15:19:58 51°16.312 2°54.271 238.5 1 222 14.2
2007-07-05 15:20:58 51°16.305 2°54.257 246.7 0.1 250 14.1
2007-07-05 15:21:58 51°16.308 2°54.267 244.2 0.5 53 13.9
2007-07-05 15:22:58 51°16.313 2°54.274 248.8 0.5 15 14
2007-07-05 15:23:58 51°16.315 2°54.284 237.8 0.6 94 13.7
2007-07-05 15:24:58 51°16.315 2°54.303 244.4 1.3 63 14.1
2007-07-05 15:25:58 51°16.347 2°54.293 315.3 4.7 355 13.9
2007-07-05 15:26:58 51°16.432 2°54.406 69.6 8.8 68 14.1
2007-07-05 15:27:58 51°16.506 2°54.665 67.3 11 69 14
2007-07-05 15:28:58 51°16.565 2°54.863 59.5 6 57 14
2007-07-05 15:29:58 51°16.613 2°54.951 29.1 3.9 52 14
2007-07-05 15:30:58 51°16.663 2°55.078 81.7 7.1 83 13.7
2007-07-05 15:31:58 51°16.648 2°55.205 158.3 2.4 82 13.5
2007-07-05 15:32:59 51°16.668 2°55.27 167.7 2.8 116 13.1
2007-07-05 15:33:58 51°16.637 2°55.279 238.9 0.9 234 13.8
2007-07-05 15:34:58 51°16.657 2°55.267 299.9 2.7 4 13.4
2007-07-05 15:35:58 51°16.712 2°55.299 352 3.2 40 13.5
2007-07-05 15:36:58 51°16.735 2°55.364 352 2.9 59 13.4
2007-07-05 15:37:58 51°16.801 2°55.452 39.7 7.4 52 13.3
2007-07-05 15:38:58 51°16.796 2°55.623 145.3 5.7 132 12.9
2007-07-05 15:39:58 51°16.696 2°55.647 196.6 8.5 183 12.9
2007-07-05 15:40:58 51°16.533 2°55.597 203.2 10.5 195 12.9
2007-07-05 15:41:58 51°16.357 2°55.538 200.6 10.9 187 12.9
2007-07-05 15:42:58 51°16.178 2°55.479 201 11 191 12.8
2007-07-05 15:43:58 51°15.998 2°55.418 201.1 11.1 191 12.1
2007-07-05 15:44:58 51°15.82 2°55.344 206.8 11.1 196 12.3
2007-07-05 15:45:58 51°15.651 2°55.251 208.3 10.8 199 12.2
2007-07-05 15:46:58 51°15.481 2°55.151 206.7 11.1 199 11.6
2007-07-05 15:47:58 51°15.307 2°55.058 205.2 11.1 200 11
2007-07-05 15:48:59 51°15.129 2°54.983 200.8 10.9 193 11.3
2007-07-05 15:49:58 51°14.955 2°54.928 198.8 10.9 191 11.7
2007-07-05 15:50:59 51°14.769 2°54.891 190.7 11.3 184 12.2
2007-07-05 15:51:58 51°14.583 2°54.906 178.5 11.8 167 12.2
2007-07-05 15:52:58 51°14.401 2°55.041 154.9 12.4 154 13.4
2007-07-05 15:53:58 51°14.257 2°55.28 134.7 11.9 137 13.5
2007-07-05 15:54:58 51°14.106 2°55.425 157.5 8.6 155 -999
2007-07-05 15:55:59 51°13.991 2°55.508 158.6 8 156 -999
2007-07-05 15:56:58 51°13.868 2°55.598 157 8.1 155 13.5
2007-07-05 15:57:58 51°13.757 2°55.708 143.3 7.2 139 13.7
2007-07-05 15:58:59 51°13.686 2°55.832 127.7 5.4 127 14.8
2007-07-05 15:59:59 51°13.639 2°55.941 124 4.7 122 -999
2007-07-05 16:00:59 51°13.61 2°56.032 113.9 3.2 112 -999
2007-07-05 16:01:59 51°13.599 2°56.084 111.3 0.7 114 -999
2007-07-05 16:02:59 51°13.599 2°56.086 119.4 0.3 315 -999
2007-07-05 16:03:58 51°13.598 2°56.093 116.5 0.1 135 -999